Japan, Missouri
Current Conditions -  °F | °C
As of 5:55 PM on Monday 20 Oct 2014 (Local Time) from KFYG Reporting Station
Clear Clear  
Wind Chill: 68°   Ceiling: Unl
Heat Index: 68°   Visibility: 10mi
Dew Point: 41°   Wind: 6mph
Humidity: 37%   Direction: 330°NNW
Pressure: 29.97"   Gusts: NA
Location:  38.2643°N, 91.1348°W
Report Text: KFYG 202255Z AUTO 33005KT 10SM CLR 20/05 A2997 RMK AO2
Loading
Personal Weather Stations






























Interactive Weather Map
Tropical Storm Tracking
New forecast layout! Learn more

10-Day Weather Forecast

Advertisements
Track Severe Weather on mobile